Time;durP1;ratioP1;P1;durP2;ratioP2;P2;SDS_P1;SDS_P2;PMS_P1;PMS_P2;Temp;Humidity;BMP_temperature;BMP_pressure;BME280_temperature;BME280_humidity;BME280_pressure;Samples;Min_cycle;Max_cycle;Signal;HPM_P1;HPM_P2
2022/03/29 00:02:38;;;;;;;17.15;4.67;;;;;;;1.43;68.03;100048.12;1738014;82;21201;-83
2022/03/29 00:05:45;;;;;;;20.45;4.53;;;;;;;1.45;68.30;100039.40;1739196;82;21631;-76
2022/03/29 00:08:51;;;;;;;22.32;4.70;;;;;;;1.43;68.75;100040.03;1737426;81;21157;-76
2022/03/29 00:11:57;;;;;;;21.52;4.33;;;;;;;1.43;69.23;100025.20;1737831;82;21224;-83
2022/03/29 00:15:04;;;;;;;21.23;4.03;;;;;;;1.44;69.40;100039.04;1738556;82;21758;-79
2022/03/29 00:18:09;;;;;;;23.27;4.37;;;;;;;1.42;69.75;100022.16;1737333;82;21849;-77
2022/03/29 00:21:15;;;;;;;11.93;3.85;;;;;;;1.41;70.21;100023.99;1738716;82;21177;-77
2022/03/29 00:24:20;;;;;;;12.60;3.30;;;;;;;1.42;70.45;100017.61;1740079;81;21189;-83
2022/03/29 00:27:25;;;;;;;15.60;3.40;;;;;;;1.42;70.60;100008.67;1739699;82;21174;-77
2022/03/29 00:30:31;;;;;;;21.23;4.22;;;;;;;1.41;70.92;100012.33;1739480;81;21166;-84
2022/03/29 00:33:36;;;;;;;25.17;5.05;;;;;;;1.40;71.24;100005.23;1738823;82;21201;-76
2022/03/29 00:36:42;;;;;;;13.35;3.17;;;;;;;1.41;71.61;100006.94;1738707;82;21193;-83
2022/03/29 00:39:49;;;;;;;25.95;3.80;;;;;;;1.44;71.91;100002.66;1738836;82;21169;-82
2022/03/29 00:42:55;;;;;;;15.03;3.65;;;;;;;1.46;72.09;99995.32;1737689;82;21727;-76
2022/03/29 00:46:00;;;;;;;12.15;3.90;;;;;;;1.45;72.25;99986.34;1738777;82;21146;-77
2022/03/29 00:49:05;;;;;;;18.37;3.40;;;;;;;1.48;72.65;99982.55;1739704;82;21158;-77
2022/03/29 00:52:11;;;;;;;13.93;3.42;;;;;;;1.50;72.70;99972.49;1738142;82;21157;-77
2022/03/29 00:55:19;;;;;;;16.77;3.92;;;;;;;1.50;72.76;99962.56;1738761;82;21786;-77
2022/03/29 00:58:25;;;;;;;13.43;3.35;;;;;;;1.51;72.98;99971.03;1738653;82;21227;-76
2022/03/29 01:01:31;;;;;;;12.75;3.65;;;;;;;1.52;73.07;99968.70;1738755;82;21665;-76
2022/03/29 01:04:37;;;;;;;16.90;3.42;;;;;;;1.52;73.27;99962.45;1739711;82;21703;-83
2022/03/29 01:07:43;;;;;;;11.75;3.45;;;;;;;1.53;73.48;99957.42;1739609;81;21197;-83
2022/03/29 01:10:51;;;;;;;22.13;5.12;;;;;;;1.53;73.66;99947.49;1737355;82;21759;-83
2022/03/29 01:13:56;;;;;;;12.45;3.45;;;;;;;1.53;73.91;99941.25;1732696;82;21158;-82
2022/03/29 01:20:32;;;;;;;15.95;4.25;;;;;;;1.52;74.55;99943.59;1738835;82;21150;-77
2022/03/29 01:23:38;;;;;;;19.45;3.95;;;;;;;1.52;74.95;99942.23;1738577;81;21193;-76
2022/03/29 01:26:44;;;;;;;14.53;4.12;;;;;;;1.53;75.18;99942.59;1739748;82;21220;-76
2022/03/29 01:29:49;;;;;;;21.77;4.22;;;;;;;1.55;75.35;99935.22;1738812;82;21182;-78
2022/03/29 01:32:59;;;;;;;16.12;4.05;;;;;;;1.54;75.49;99942.45;1738825;82;21181;-76
2022/03/29 01:35:58;;;;;;;17.80;4.13;;;;;;;1.53;75.68;99934.02;1741411;82;21157;-84
2022/03/29 01:38:52;;;;;;;24.87;4.72;;;;;;;1.53;75.88;99932.67;1741150;81;21213;-84
2022/03/29 01:41:58;;;;;;;14.45;4.60;;;;;;;1.56;76.05;99938.31;1741348;82;21209;-77
2022/03/29 01:45:04;;;;;;;17.98;3.50;;;;;;;1.56;76.09;99926.17;1741194;82;21188;-76
2022/03/29 01:48:12;;;;;;;20.40;4.37;;;;;;;1.57;76.17;99915.75;1741094;82;21173;-77
2022/03/29 01:51:17;;;;;;;20.88;4.17;;;;;;;1.58;76.31;99917.45;1741166;82;21169;-83
2022/03/29 01:54:22;;;;;;;19.10;4.75;;;;;;;1.57;76.42;99911.70;1740694;81;21185;-83
2022/03/29 01:57:36;;;;;;;18.98;5.00;;;;;;;1.58;76.66;99908.52;1741174;82;21213;-76
2022/03/29 02:00:41;;;;;;;16.27;4.90;;;;;;;1.56;76.92;99916.74;1741259;82;21153;-76
2022/03/29 02:03:47;;;;;;;17.15;3.80;;;;;;;1.58;77.04;99916.11;1741243;82;21196;-77
2022/03/29 02:06:54;;;;;;;20.52;4.70;;;;;;;1.58;77.25;99906.67;1741120;82;21774;-76
2022/03/29 02:10:00;;;;;;;21.40;4.22;;;;;;;1.56;77.27;99893.83;1741026;81;21185;-84
2022/03/29 02:13:09;;;;;;;13.95;3.70;;;;;;;1.54;77.57;99902.02;1739584;82;21185;-76
2022/03/29 02:16:14;;;;;;;14.00;4.20;;;;;;;1.54;77.81;99902.52;1739668;81;21715;-77
2022/03/29 02:19:20;;;;;;;18.50;4.30;;;;;;;1.54;77.90;99895.78;1741171;82;21738;-84
2022/03/29 02:22:27;;;;;;;27.17;3.98;;;;;;;1.56;78.31;99890.28;1741094;82;21181;-76
2022/03/29 02:25:33;;;;;;;19.50;4.05;;;;;;;1.59;78.37;99889.51;1741001;81;21193;-76
2022/03/29 02:28:38;;;;;;;22.87;6.17;;;;;;;1.62;78.52;99885.71;1740997;82;21209;-83
2022/03/29 02:31:44;;;;;;;8.40;3.40;;;;;;;1.62;78.58;99878.48;1740772;82;21248;-83
2022/03/29 02:34:51;;;;;;;20.00;3.15;;;;;;;1.62;78.72;99869.04;1742137;82;21205;-84
2022/03/29 02:37:59;;;;;;;22.02;4.58;;;;;;;1.64;78.81;99874.30;1737868;81;21196;-76
2022/03/29 02:41:03;;;;;;;21.20;4.33;;;;;;;1.63;78.84;99871.23;1738798;81;21221;-83
2022/03/29 02:44:12;;;;;;;18.70;4.97;;;;;;;1.63;78.97;99864.00;1738813;82;21774;-83
2022/03/29 02:47:18;;;;;;;27.98;4.33;;;;;;;1.64;79.21;99859.47;1738653;82;21185;-77
2022/03/29 02:50:24;;;;;;;20.08;4.15;;;;;;;1.65;79.50;99866.09;1739583;82;21761;-76
2022/03/29 02:53:29;;;;;;;18.02;3.80;;;;;;;1.66;79.65;99870.49;1737832;82;21173;-77
2022/03/29 02:56:35;;;;;;;23.32;4.72;;;;;;;1.69;79.69;99863.97;1737967;81;21766;-83
2022/03/29 02:59:45;;;;;;;20.15;5.35;;;;;;;1.69;79.81;99862.13;1739506;82;21766;-76
2022/03/29 03:02:53;;;;;;;13.88;3.62;;;;;;;1.70;80.04;99863.01;1737871;82;21204;-76
2022/03/29 03:06:00;;;;;;;22.07;4.15;;;;;;;1.69;80.28;99867.52;1739494;82;21205;-77
2022/03/29 03:09:06;;;;;;;19.00;4.17;;;;;;;1.68;80.42;99859.07;1739325;82;21164;-76
2022/03/29 03:12:11;;;;;;;16.35;4.30;;;;;;;1.67;80.84;99863.26;1739069;82;21177;-84
2022/03/29 03:15:19;;;;;;;16.20;4.12;;;;;;;1.66;81.13;99860.20;1737988;82;21676;-77
2022/03/29 03:18:25;;;;;;;15.38;3.70;;;;;;;1.64;81.54;99852.23;1739317;82;21189;-76
2022/03/29 03:21:31;;;;;;;21.48;4.55;;;;;;;1.66;81.98;99860.20;1739389;82;21189;-76
2022/03/29 03:24:38;;;;;;;25.97;3.80;;;;;;;1.68;82.29;99860.42;1740164;82;21491;-77
2022/03/29 03:27:44;;;;;;;19.77;4.28;;;;;;;1.70;82.32;99862.52;1739445;82;21212;-83
2022/03/29 03:30:51;;;;;;;23.70;4.28;;;;;;;1.74;82.57;99867.12;1737946;82;21170;-77
2022/03/29 03:33:57;;;;;;;22.60;3.92;;;;;;;1.77;82.87;99855.59;1739548;81;21209;-83
2022/03/29 03:37:05;;;;;;;19.42;3.95;;;;;;;1.82;82.94;99853.85;1739418;82;21212;-83
2022/03/29 03:40:12;;;;;;;16.97;3.85;;;;;;;1.86;83.09;99856.65;1739663;81;21798;-83
2022/03/29 03:43:18;;;;;;;19.42;3.92;;;;;;;1.91;83.15;99861.65;1739531;82;21173;-76
2022/03/29 03:46:24;;;;;;;26.93;3.83;;;;;;;1.95;83.24;99862.61;1739294;82;21201;-83
2022/03/29 03:49:29;;;;;;;19.92;4.03;;;;;;;1.99;83.27;99863.20;1739204;82;21170;-76
2022/03/29 03:52:34;;;;;;;12.25;3.70;;;;;;;2.03;83.25;99865.50;1739501;82;21196;-83
2022/03/29 03:55:40;;;;;;;24.67;4.42;;;;;;;2.08;83.30;99854.31;1739160;81;21758;-83
2022/03/29 03:58:46;;;;;;;20.45;4.55;;;;;;;2.15;83.18;99858.17;1739265;82;21158;-83
2022/03/29 04:01:52;;;;;;;22.77;4.40;;;;;;;2.18;83.11;99870.55;1739187;82;21228;-77
2022/03/29 04:04:59;;;;;;;24.57;5.00;;;;;;;2.23;82.93;99865.61;1738564;82;21161;-77
2022/03/29 04:08:04;;;;;;;22.22;3.85;;;;;;;2.24;82.81;99868.66;1739353;82;21200;-78
2022/03/29 04:11:09;;;;;;;29.23;4.47;;;;;;;2.23;82.79;99861.06;1739216;81;21185;-76
2022/03/29 04:14:14;;;;;;;16.50;4.05;;;;;;;2.25;82.91;99870.36;1739450;82;21707;-77
2022/03/29 04:17:21;;;;;;;22.37;4.85;;;;;;;2.28;82.83;99868.77;1739267;82;21770;-77
2022/03/29 04:20:29;;;;;;;30.20;4.25;;;;;;;2.29;82.81;99865.06;1738031;82;21149;-76
2022/03/29 04:23:28;;;;;;;22.45;4.12;;;;;;;2.34;82.93;99867.36;1739407;82;21201;-76
2022/03/29 04:26:22;;;;;;;19.60;4.33;;;;;;;2.44;82.94;99864.20;1739304;81;21173;-77
2022/03/29 04:29:27;;;;;;;22.85;5.58;;;;;;;2.54;82.81;99864.63;1739743;82;21667;-84
2022/03/29 04:32:26;;;;;;;20.92;5.12;;;;;;;2.65;82.62;99862.31;1739638;82;21252;-76
2022/03/29 04:35:31;;;;;;;24.63;3.87;;;;;;;2.75;82.50;99851.05;1739536;82;21225;-83
2022/03/29 04:38:36;;;;;;;20.62;4.28;;;;;;;2.86;82.42;99849.22;1739312;82;21272;-83
2022/03/29 04:41:43;;;;;;;30.40;5.00;;;;;;;2.97;82.30;99841.02;1740076;81;21157;-83
2022/03/29 04:44:51;;;;;;;18.32;4.35;;;;;;;3.08;82.19;99844.94;1740957;82;21138;-76
2022/03/29 04:47:56;;;;;;;21.97;4.00;;;;;;;3.20;81.97;99840.25;1737866;81;21750;-83
2022/03/29 04:51:03;;;;;;;26.37;5.00;;;;;;;3.30;81.81;99829.83;1739323;82;21742;-77
2022/03/29 04:54:09;;;;;;;15.60;4.58;;;;;;;3.43;81.51;99844.89;1732533;82;21719;-76
2022/03/29 04:57:15;;;;;;;27.85;5.37;;;;;;;3.54;81.25;99843.42;1739827;81;21153;-83
2022/03/29 05:00:22;;;;;;;30.30;5.30;;;;;;;3.64;80.81;99822.62;1741525;82;21165;-77
2022/03/29 05:03:28;;;;;;;31.85;6.12;;;;;;;3.75;80.27;99835.13;1741832;82;21189;-78
2022/03/29 05:06:36;;;;;;;20.90;6.60;;;;;;;3.87;80.16;99827.22;1741142;82;21197;-83
2022/03/29 05:09:42;;;;;;;26.35;8.10;;;;;;;3.98;79.41;99824.34;1741207;82;21695;-78
2022/03/29 05:12:56;;;;;;;27.85;7.97;;;;;;;4.10;79.07;99823.69;1740447;81;21743;-82
2022/03/29 05:16:02;;;;;;;34.73;9.43;;;;;;;4.23;78.46;99816.06;1737415;82;21233;-83
2022/03/29 05:19:09;;;;;;;30.37;8.85;;;;;;;4.36;77.56;99819.81;1740976;82;21154;-76
2022/03/29 05:22:15;;;;;;;27.52;8.45;;;;;;;4.47;77.04;99820.99;1741270;82;21193;-77
2022/03/29 05:25:22;;;;;;;42.65;9.28;;;;;;;4.60;76.59;99820.13;1737904;82;21173;-83
2022/03/29 05:28:21;;;;;;;34.67;9.18;;;;;;;4.73;75.96;99819.78;1739393;81;21165;-77
2022/03/29 05:31:26;;;;;;;35.05;9.25;;;;;;;4.85;75.18;99824.00;1740113;82;21229;-77
2022/03/29 05:34:33;;;;;;;19.73;6.90;;;;;;;4.97;74.68;99814.30;1739715;82;21161;-77
2022/03/29 05:37:37;;;;;;;29.07;7.25;;;;;;;5.08;74.10;99805.94;1740249;81;21176;-77
2022/03/29 05:40:43;;;;;;;27.75;6.05;;;;;;;5.21;73.49;99805.06;1737840;81;21190;-82
2022/03/29 05:43:49;;;;;;;22.58;5.62;;;;;;;5.35;72.98;99795.53;1738199;82;21787;-82
2022/03/29 05:50:19;;;;;;;26.35;5.50;;;;;;;5.57;71.67;99797.78;1739262;82;21791;-83
2022/03/29 05:53:25;;;;;;;26.70;5.05;;;;;;;5.72;71.83;99788.56;1728583;81;21230;-76
2022/03/29 05:56:30;;;;;;;15.48;4.35;;;;;;;5.87;70.96;99792.91;1729057;83;21192;-84
2022/03/29 05:59:36;;;;;;;18.92;3.92;;;;;;;5.99;70.27;99790.83;1729234;83;21184;-83
2022/03/29 06:02:35;;;;;;;23.32;4.83;;;;;;;6.11;69.65;99791.74;1729905;81;21206;-83
2022/03/29 06:05:27;;;;;;;18.32;4.20;;;;;;;6.26;69.02;99791.17;1749247;81;21201;-83
2022/03/29 06:08:32;;;;;;;24.07;4.50;;;;;;;6.36;68.64;99790.04;1749143;81;21145;-80
2022/03/29 06:11:38;;;;;;;21.25;4.20;;;;;;;6.50;68.45;99780.94;1728937;82;21208;-77
2022/03/29 06:14:35;;;;;;;23.10;4.40;;;;;;;6.66;67.56;99788.63;1728902;82;21208;-76
2022/03/29 06:17:40;;;;;;;23.47;4.78;;;;;;;6.76;66.48;99770.83;1723187;82;21232;-83
2022/03/29 06:20:47;;;;;;;30.88;4.67;;;;;;;6.83;66.15;99773.77;1755795;81;21644;-84
2022/03/29 06:23:53;;;;;;;27.55;4.87;;;;;;;6.90;65.88;99762.03;1761316;81;21992;-77
2022/03/29 06:27:01;;;;;;;25.37;5.20;;;;;;;7.02;65.49;99754.95;1763611;79;21768;-77
2022/03/29 06:30:06;;;;;;;21.48;4.28;;;;;;;7.11;65.22;99747.14;1762781;81;21178;-75
2022/03/29 06:33:12;;;;;;;20.92;4.60;;;;;;;7.20;64.98;99729.81;1761141;79;21766;-75
2022/03/29 06:36:19;;;;;;;21.68;4.45;;;;;;;7.31;64.49;99733.55;1759309;81;21139;-83
2022/03/29 06:39:27;;;;;;;13.70;4.28;;;;;;;7.45;64.05;99746.14;1758729;79;21161;-83
2022/03/29 06:42:34;;;;;;;21.70;5.28;;;;;;;7.59;64.01;99753.62;1731379;81;21207;-83
2022/03/29 06:45:41;;;;;;;18.70;4.87;;;;;;;7.73;62.71;99739.33;1761905;79;21154;-76
2022/03/29 06:48:49;;;;;;;22.13;5.13;;;;;;;7.83;62.37;99742.71;1719490;83;21676;-77
2022/03/29 06:51:54;;;;;;;17.65;4.40;;;;;;;7.96;61.42;99755.80;1766213;79;21770;-76
2022/03/29 06:55:00;;;;;;;26.35;4.92;;;;;;;8.08;61.21;99753.03;1764322;79;21177;-77
2022/03/29 06:58:06;;;;;;;23.92;4.80;;;;;;;8.22;61.09;99756.07;1723345;82;21208;-76
2022/03/29 07:01:14;;;;;;;26.73;4.80;;;;;;;8.39;60.00;99749.07;1706043;82;21161;-77
2022/03/29 07:04:21;;;;;;;31.33;5.22;;;;;;;8.49;59.32;99750.73;1697985;83;21154;-77
2022/03/29 07:07:26;;;;;;;13.20;4.33;;;;;;;8.58;59.02;99749.17;1714839;82;22056;-77
2022/03/29 07:13:57;;;;;;;20.02;5.10;;;;;;;8.88;58.48;99747.47;1717686;82;21182;-83
2022/03/29 07:16:57;;;;;;;29.92;5.60;;;;;;;9.03;57.90;99759.83;1715209;82;21194;-77
2022/03/29 07:19:48;;;;;;;28.25;6.05;;;;;;;9.11;57.99;99742.05;1731353;81;22117;-84
2022/03/29 07:22:56;;;;;;;16.82;5.35;;;;;;;9.19;57.16;99735.18;1721813;82;21802;-84
2022/03/29 07:26:02;;;;;;;19.50;4.60;;;;;;;9.30;56.85;99735.78;1708834;82;21154;-83
2022/03/29 07:29:07;;;;;;;23.40;5.08;;;;;;;9.41;56.59;99723.06;1706760;83;21771;-83
2022/03/29 07:32:13;;;;;;;23.10;5.83;;;;;;;9.48;56.04;99723.52;1706871;83;22109;-83
2022/03/29 07:35:20;;;;;;;22.07;5.72;;;;;;;9.57;56.16;99719.36;1702004;83;21172;-83
2022/03/29 07:38:27;;;;;;;22.85;5.08;;;;;;;9.70;54.96;99715.49;1711453;83;21213;-76
2022/03/29 07:41:35;;;;;;;22.75;5.92;;;;;;;9.82;54.59;99718.09;1721883;83;21756;-75
2022/03/29 07:44:42;;;;;;;;;;;;;;;9.93;54.51;99721.75;1730637;81;21215;-76
2022/03/29 07:47:52;;;;;;;23.27;5.87;;;;;;;10.09;54.19;99710.31;1760351;80;20205;-77
2022/03/29 07:50:56;;;;;;;26.05;5.95;;;;;;;10.25;53.20;99706.04;1755176;81;21201;-77
2022/03/29 07:54:03;;;;;;;25.15;5.72;;;;;;;10.38;52.82;99710.85;1761978;81;21184;-77
2022/03/29 07:57:11;;;;;;;30.30;6.28;;;;;;;10.49;52.55;99724.91;1767516;81;21201;-84
2022/03/29 08:00:32;;;;;;;31.97;7.85;;;;;;;10.56;52.10;99700.37;1762298;80;21222;-77
2022/03/29 08:03:37;;;;;;;32.38;7.70;;;;;;;10.60;51.75;99700.84;1764212;80;21166;-77
2022/03/29 08:06:43;;;;;;;23.67;7.75;;;;;;;10.68;52.19;99689.77;1737755;82;21209;-84
2022/03/29 08:09:50;;;;;;;35.55;8.45;;;;;;;10.80;51.81;99690.13;1754001;81;21150;-77
2022/03/29 08:12:56;;;;;;;20.43;7.28;;;;;;;10.87;50.93;99674.13;1761706;79;21224;-84
2022/03/29 08:16:02;;;;;;;28.65;9.38;;;;;;;10.96;51.68;99678.94;1725871;83;21734;-84
2022/03/29 08:19:07;;;;;;;27.10;8.23;;;;;;;11.07;51.52;99674.86;1727579;82;21184;-77
2022/03/29 08:22:12;;;;;;;24.37;8.78;;;;;;;11.19;50.49;99673.28;1734846;82;21215;-76
2022/03/29 08:25:18;;;;;;;28.50;8.93;;;;;;;11.29;50.06;99685.27;1722813;82;21305;-76
2022/03/29 08:28:24;;;;;;;21.87;8.65;;;;;;;11.41;50.17;99676.34;1707137;83;21181;-76
2022/03/29 08:31:31;;;;;;;28.12;8.58;;;;;;;11.55;49.76;99668.23;1762444;81;21511;-77
2022/03/29 08:34:39;;;;;;;30.82;9.25;;;;;;;11.63;48.99;99663.47;1755770;81;21760;-84
2022/03/29 08:37:46;;;;;;;31.82;8.08;;;;;;;11.71;49.05;99661.92;1674791;84;21725;-84
2022/03/29 08:40:53;;;;;;;30.90;9.45;;;;;;;11.81;48.82;99657.49;1702162;83;21166;-83
2022/03/29 08:44:01;;;;;;;34.65;9.90;;;;;;;11.86;48.80;99656.41;1708062;83;21154;-83
2022/03/29 08:47:07;;;;;;;31.60;9.28;;;;;;;11.91;48.50;99655.27;1722168;82;21189;-77
2022/03/29 08:50:14;;;;;;;30.62;9.83;;;;;;;11.97;48.76;99644.02;1728857;82;21153;-84
2022/03/29 08:53:24;;;;;;;30.85;10.40;;;;;;;12.02;48.51;99640.99;1768020;80;21177;-77
2022/03/29 08:56:30;;;;;;;47.90;10.32;;;;;;;12.07;48.17;99636.80;1755006;81;21187;-77
2022/03/29 08:59:36;;;;;;;33.83;10.70;;;;;;;12.11;48.27;99642.20;1759482;81;21209;-77
2022/03/29 09:02:43;;;;;;;34.45;9.45;;;;;;;12.20;48.21;99636.88;1760114;81;21150;-77
2022/03/29 09:05:51;;;;;;;32.05;9.23;;;;;;;12.32;47.86;99633.86;1687276;83;21192;-84
2022/03/29 09:08:57;;;;;;;31.07;9.10;;;;;;;12.40;47.65;99646.56;1725142;82;21758;-82
2022/03/29 09:12:06;;;;;;;28.62;8.85;;;;;;;12.46;47.28;99629.28;1733864;82;21251;-84
2022/03/29 09:15:13;;;;;;;34.90;10.18;;;;;;;12.56;46.67;99643.98;1761819;79;21150;-84
2022/03/29 09:18:18;;;;;;;40.52;9.55;;;;;;;12.67;46.94;99649.73;1748165;81;21532;-84
2022/03/29 09:21:25;;;;;;;33.08;10.80;;;;;;;12.79;46.63;99628.86;1759714;80;21215;-77
2022/03/29 09:24:35;;;;;;;29.77;10.30;;;;;;;12.93;46.13;99639.34;1753974;81;21140;-83
2022/03/29 09:28:00;;;;;;;30.50;11.43;;;;;;;12.99;46.21;99618.47;1765382;79;21196;-84
2022/03/29 09:31:07;;;;;;;29.98;9.58;;;;;;;13.08;45.91;99627.33;1759075;79;21173;-84
2022/03/29 09:34:27;;;;;;;35.95;10.43;;;;;;;13.17;46.26;99628.29;1754419;80;21151;-83
2022/03/29 09:37:44;;;;;;;34.38;10.75;;;;;;;13.29;46.17;99635.42;1760612;81;21508;-77
2022/03/29 09:40:49;;;;;;;37.65;10.10;;;;;;;13.35;45.13;99629.61;1698354;82;21150;-76
2022/03/29 09:44:16;;;;;;;28.02;9.95;;;;;;;13.27;45.28;99626.03;1742490;81;21193;-83
2022/03/29 09:47:22;;;;;;;27.02;10.08;;;;;;;13.20;45.05;99638.02;1769301;79;21162;-77
2022/03/29 09:50:29;;;;;;;31.87;10.03;;;;;;;13.21;45.55;99619.11;1765790;81;21158;-84
2022/03/29 09:53:51;;;;;;;25.85;7.83;;;;;;;13.28;45.46;99622.22;1764877;80;21746;-83
2022/03/29 09:56:58;;;;;;;32.13;8.45;;;;;;;13.35;44.66;99629.08;1759174;80;21208;-77
2022/03/29 10:00:03;;;;;;;21.30;8.13;;;;;;;13.38;44.94;99627.30;1757640;81;22173;-76
2022/03/29 10:03:13;;;;;;;22.77;9.13;;;;;;;13.46;45.47;99624.34;1762719;79;21177;-77
2022/03/29 10:06:22;;;;;;;17.82;8.15;;;;;;;13.59;44.93;99634.46;1751862;81;21762;-83
2022/03/29 10:09:42;;;;;;;21.90;8.10;;;;;;;13.68;44.56;99632.34;1764827;80;22328;-83
2022/03/29 10:12:45;;;;;;;25.20;8.20;;;;;;;13.77;44.75;99622.83;1753910;81;21177;-83
2022/03/29 10:15:53;;;;;;;26.77;8.30;;;;;;;13.88;43.92;99615.31;1764715;79;21133;-76
2022/03/29 10:19:00;;;;;;;21.90;6.65;;;;;;;13.94;44.50;99617.20;1721733;82;21171;-77
2022/03/29 10:22:06;;;;;;;22.82;6.37;;;;;;;13.97;44.32;99616.78;1708631;82;21232;-77
2022/03/29 10:25:14;;;;;;;26.57;7.58;;;;;;;14.03;44.10;99610.41;1709758;83;21181;-76
2022/03/29 10:28:21;;;;;;;25.77;7.45;;;;;;;14.06;43.22;99605.83;1702759;83;21261;-83
2022/03/29 10:31:42;;;;;;;23.65;6.95;;;;;;;14.01;43.66;99598.77;1755937;81;21271;-78
2022/03/29 10:34:48;;;;;;;13.88;6.17;;;;;;;13.97;43.51;99592.03;1757711;81;21144;-77
2022/03/29 10:38:02;;;;;;;20.17;7.22;;;;;;;14.10;43.52;99590.28;1757247;81;21236;-76
2022/03/29 10:41:07;;;;;;;22.25;6.75;;;;;;;14.36;43.41;99573.69;1755261;81;21169;-83
2022/03/29 10:44:14;;;;;;;19.40;6.37;;;;;;;14.55;41.97;99572.77;1751290;80;21201;-76
2022/03/29 10:47:33;;;;;;;23.67;6.83;;;;;;;14.56;42.07;99569.48;1771521;80;21744;-82
2022/03/29 10:50:58;;;;;;;16.57;6.60;;;;;;;14.55;41.86;99563.67;1758005;80;22149;-76
2022/03/29 10:54:04;;;;;;;19.17;6.45;;;;;;;14.41;41.47;99556.52;1757160;81;21166;-83
2022/03/29 10:57:31;;;;;;;27.00;7.47;;;;;;;14.29;42.48;99550.32;1737534;81;21161;-83
2022/03/29 11:00:36;;;;;;;20.20;6.58;;;;;;;14.27;42.65;99544.73;1755855;81;21178;-83
2022/03/29 11:03:42;;;;;;;21.82;7.22;;;;;;;14.39;43.18;99546.25;1756625;81;21150;-79
2022/03/29 11:06:42;;;;;;;28.73;7.90;;;;;;;14.57;42.73;99541.73;1755335;81;21134;-76
2022/03/29 11:09:49;;;;;;;19.52;7.15;;;;;;;14.73;42.91;99528.00;1748040;81;21680;-82
2022/03/29 11:12:57;;;;;;;18.82;7.30;;;;;;;14.90;42.55;99518.64;1749601;81;21719;-76
2022/03/29 11:16:03;;;;;;;19.32;7.03;;;;;;;15.07;42.27;99526.67;1756745;81;21151;-82
2022/03/29 11:19:02;;;;;;;22.27;7.10;;;;;;;15.13;41.62;99521.33;1755843;81;21157;-76
2022/03/29 11:22:07;;;;;;;33.05;8.50;;;;;;;15.16;41.13;99518.14;1747558;81;21169;-76
2022/03/29 11:25:17;;;;;;;22.87;6.80;;;;;;;15.23;41.13;99513.39;1745652;81;21146;-76
2022/03/29 11:28:23;;;;;;;26.85;6.62;;;;;;;15.33;40.53;99504.91;1737524;81;21185;-83
2022/03/29 11:31:29;;;;;;;25.02;6.67;;;;;;;15.35;40.36;99500.58;1752665;80;21200;-83
2022/03/29 11:34:44;;;;;;;17.30;6.08;;;;;;;15.30;40.99;99491.61;1753969;81;21190;-76
2022/03/29 11:37:53;;;;;;;35.00;6.90;;;;;;;15.29;40.18;99494.57;1767179;81;21228;-76
2022/03/29 11:40:59;;;;;;;22.67;6.60;;;;;;;15.24;40.20;99479.26;1749876;81;21135;-76
2022/03/29 11:44:01;;;;;;;36.93;6.78;;;;;;;15.19;41.54;99481.31;1665390;84;21207;-83
2022/03/29 11:47:06;;;;;;;23.25;6.45;;;;;;;15.20;41.61;99476.68;1733910;82;21232;-83
2022/03/29 11:50:12;;;;;;;20.00;6.87;;;;;;;15.12;41.72;99468.16;1747846;81;21150;-83
2022/03/29 11:53:38;;;;;;;30.00;7.00;;;;;;;14.94;41.19;99466.19;1761805;81;21154;-82
2022/03/29 11:56:45;;;;;;;20.85;5.92;;;;;;;14.77;41.76;99467.81;1752704;81;21777;-76
2022/03/29 11:59:51;;;;;;;22.62;6.12;;;;;;;14.64;42.61;99459.69;1770532;81;21142;-83
2022/03/29 12:02:58;;;;;;;19.57;6.60;;;;;;;14.59;42.95;99465.86;1759478;81;21773;-77
2022/03/29 12:06:22;;;;;;;19.73;7.83;;;;;;;14.64;42.70;99461.06;1729495;83;21747;-82
2022/03/29 12:09:32;;;;;;;26.52;8.48;;;;;;;14.68;41.95;99449.38;1729346;83;21738;-76
2022/03/29 12:12:38;;;;;;;26.30;8.43;;;;;;;14.80;41.02;99457.73;1728599;83;21208;-83
2022/03/29 12:15:44;;;;;;;35.92;8.80;;;;;;;14.87;40.97;99456.30;1729188;83;21701;-82
2022/03/29 12:18:50;;;;;;;34.70;9.20;;;;;;;14.94;41.38;99456.56;1732093;81;21777;-83
2022/03/29 12:22:00;;;;;;;24.32;8.48;;;;;;;14.97;41.01;99442.89;1729092;83;21211;-83
2022/03/29 12:25:09;;;;;;;23.95;6.97;;;;;;;14.91;41.73;99440.48;1729299;83;21160;-77
2022/03/29 12:28:14;;;;;;;19.77;6.60;;;;;;;14.82;42.17;99442.70;1729341;83;21237;-83
2022/03/29 12:31:21;;;;;;;38.88;9.85;;;;;;;14.74;42.62;99435.25;1720403;81;21183;-77
2022/03/29 12:34:30;;;;;;;22.22;7.83;;;;;;;14.67;42.57;99432.53;1768861;81;21735;-76
2022/03/29 12:37:36;;;;;;;31.57;10.03;;;;;;;14.59;42.52;99429.23;1756269;81;21126;-83
2022/03/29 12:40:43;;;;;;;25.65;10.80;;;;;;;14.53;42.94;99425.45;1758006;81;21135;-76
2022/03/29 12:43:51;;;;;;;29.82;9.75;;;;;;;14.48;43.05;99413.73;1745134;81;21123;-77
2022/03/29 12:46:56;;;;;;;26.12;9.73;;;;;;;14.43;43.48;99412.69;1671151;84;21757;-76
2022/03/29 12:50:03;;;;;;;31.60;8.30;;;;;;;14.38;43.52;99413.36;1711984;83;21249;-76
2022/03/29 12:53:13;;;;;;;32.60;8.08;;;;;;;14.33;43.29;99409.91;1724754;83;21759;-83
2022/03/29 12:56:19;;;;;;;24.82;7.53;;;;;;;14.32;43.62;99410.14;1729555;83;21174;-83
2022/03/29 12:59:40;;;;;;;23.80;7.87;;;;;;;14.31;44.18;99398.83;1730343;83;21201;-77
2022/03/29 13:02:49;;;;;;;34.20;8.95;;;;;;;14.28;43.83;99398.73;1730493;83;21192;-83
2022/03/29 13:05:56;;;;;;;25.15;8.15;;;;;;;14.26;43.89;99398.12;1728387;83;21201;-76
2022/03/29 13:09:11;;;;;;;31.52;8.10;;;;;;;14.24;43.99;99392.52;1724372;83;21170;-76
2022/03/29 13:12:22;;;;;;;25.23;7.08;;;;;;;14.24;44.22;99399.39;1724254;83;21212;-76
2022/03/29 13:15:51;;;;;;;21.53;7.47;;;;;;;14.29;44.62;99389.94;1723465;82;21193;-83
2022/03/29 13:18:57;;;;;;;20.75;7.45;;;;;;;14.40;44.53;99382.90;1724903;83;21212;-76
2022/03/29 13:22:12;;;;;;;19.70;7.92;;;;;;;14.56;44.18;99380.45;1724839;83;21212;-82
2022/03/29 13:25:18;;;;;;;18.12;6.75;;;;;;;14.74;43.91;99369.19;1725065;83;21150;-83
2022/03/29 13:28:23;;;;;;;27.48;8.95;;;;;;;14.86;43.58;99368.73;1724795;83;21754;-76
2022/03/29 13:31:29;;;;;;;32.48;9.95;;;;;;;14.92;43.35;99357.37;1724932;83;21224;-82
2022/03/29 13:34:34;;;;;;;27.55;9.08;;;;;;;14.96;42.56;99358.57;1724859;83;21161;-76
2022/03/29 13:37:40;;;;;;;29.32;10.43;;;;;;;14.97;42.51;99363.88;1724921;83;21201;-76
2022/03/29 13:40:45;;;;;;;29.82;8.25;;;;;;;14.91;42.25;99366.67;1724916;83;21149;-76
2022/03/29 13:43:50;;;;;;;30.05;8.68;;;;;;;14.80;41.83;99355.88;1724868;83;21188;-82
2022/03/29 13:46:56;;;;;;;23.52;7.40;;;;;;;14.67;42.21;99354.09;1729112;82;21177;-76
2022/03/29 13:50:02;;;;;;;17.60;7.55;;;;;;;14.54;42.33;99349.58;1732920;83;21676;-76
2022/03/29 13:53:07;;;;;;;21.17;8.45;;;;;;;14.43;42.71;99351.63;1732469;83;21241;-76
2022/03/29 13:56:14;;;;;;;34.30;8.65;;;;;;;14.36;43.36;99354.98;1732874;83;21150;-76
2022/03/29 13:59:21;;;;;;;22.07;8.10;;;;;;;14.31;43.96;99357.57;1732906;83;21138;-76
2022/03/29 14:02:28;;;;;;;29.65;9.35;;;;;;;14.23;44.26;99350.42;1737821;82;21201;-76
2022/03/29 14:05:34;;;;;;;30.10;9.03;;;;;;;14.17;44.61;99350.48;1733029;83;21182;-76
2022/03/29 14:08:39;;;;;;;27.40;8.20;;;;;;;14.10;44.70;99347.77;1733092;83;21154;-83
2022/03/29 14:11:46;;;;;;;21.52;8.08;;;;;;;14.03;44.58;99340.95;1732915;83;21193;-76
2022/03/29 14:14:52;;;;;;;29.37;8.55;;;;;;;13.99;44.57;99340.24;1732860;83;21264;-83
2022/03/29 14:18:00;;;;;;;20.57;8.33;;;;;;;13.98;44.16;99340.78;1731771;82;21197;-77
2022/03/29 14:21:06;;;;;;;27.85;9.48;;;;;;;13.95;44.18;99338.46;1732950;83;21157;-76
2022/03/29 14:24:05;;;;;;;26.20;9.08;;;;;;;13.93;44.14;99335.11;1731648;82;21178;-76
2022/03/29 14:27:00;;;;;;;27.85;9.65;;;;;;;13.91;44.41;99337.22;1732925;83;21193;-76
2022/03/29 14:30:06;;;;;;;33.95;9.18;;;;;;;13.89;44.61;99333.86;1717540;83;21703;-76
2022/03/29 14:33:11;;;;;;;25.23;9.33;;;;;;;13.90;44.97;99331.41;1732935;83;21185;-83
2022/03/29 14:36:18;;;;;;;20.92;8.68;;;;;;;13.87;44.98;99333.22;1732950;83;21150;-83
2022/03/29 14:39:25;;;;;;;21.40;9.03;;;;;;;13.84;45.11;99328.19;1733056;83;21755;-76
2022/03/29 14:42:30;;;;;;;28.83;9.68;;;;;;;13.79;45.18;99312.36;1732944;83;21177;-76
2022/03/29 14:45:37;;;;;;;18.30;8.80;;;;;;;13.73;45.44;99312.38;1733122;83;21189;-76